createdAt,value
2022-09-02T00:00:24.956Z,1999.90
2022-09-02T00:01:24.959Z,1999.90
2022-09-02T00:02:25.070Z,1999.90
2022-09-02T00:03:25.212Z,1999.90
2022-09-02T00:04:24.959Z,1999.90
2022-09-02T00:05:24.937Z,1999.90
2022-09-02T00:06:24.941Z,1999.90
2022-09-02T00:07:24.933Z,1999.90
2022-09-02T00:08:25.044Z,1999.90
2022-09-02T00:09:24.916Z,1999.90
2022-09-02T00:10:24.917Z,1999.90
2022-09-02T00:11:24.902Z,1999.90
2022-09-02T00:12:24.904Z,1999.90
2022-09-02T00:13:24.903Z,1999.90
2022-09-02T00:14:24.983Z,1999.90
2022-09-02T00:15:24.875Z,1999.90
2022-09-02T00:16:24.908Z,1999.90
2022-09-02T00:17:24.879Z,1999.90
2022-09-02T00:18:24.890Z,1999.90
2022-09-02T00:19:24.868Z,1999.90
2022-09-02T00:20:24.856Z,1999.90
2022-09-02T00:21:24.847Z,1999.90
2022-09-02T00:22:24.832Z,1999.90
2022-09-02T00:23:27.342Z,1999.90
2022-09-02T00:24:24.823Z,1999.90
2022-09-02T00:25:24.849Z,1999.90
2022-09-02T00:26:24.815Z,1999.90
2022-09-02T00:27:24.802Z,1999.90
2022-09-02T00:28:24.808Z,1999.90
2022-09-02T00:29:24.787Z,1999.90
2022-09-02T00:30:24.807Z,1999.90
2022-09-02T00:31:24.907Z,1999.90
2022-09-02T00:32:24.773Z,1999.90
2022-09-02T00:33:24.778Z,1999.90
2022-09-02T00:34:24.787Z,1999.90
2022-09-02T00:35:24.756Z,1999.90
2022-09-02T00:36:24.781Z,1999.90
2022-09-02T00:37:24.747Z,1999.90
2022-09-02T00:38:24.749Z,1999.90
2022-09-02T00:39:24.727Z,1999.90
2022-09-02T00:40:24.755Z,1999.90
2022-09-02T00:41:24.837Z,1999.90
2022-09-02T00:42:24.715Z,1999.90
2022-09-02T00:43:24.703Z,1999.90
2022-09-02T00:44:24.725Z,1999.90
2022-09-02T00:45:24.752Z,1999.90
2022-09-02T00:46:24.704Z,1999.90
2022-09-02T00:47:24.705Z,1999.90
2022-09-02T00:48:24.676Z,1999.90
2022-09-02T00:49:24.671Z,1999.90
2022-09-02T00:50:24.668Z,1999.90
2022-09-02T00:51:24.692Z,1999.90
2022-09-02T00:52:24.677Z,1999.90
2022-09-02T00:53:24.661Z,1999.90
2022-09-02T00:54:24.654Z,1999.90
2022-09-02T00:55:24.644Z,1999.90
2022-09-02T00:56:24.619Z,1999.90
2022-09-02T00:57:24.612Z,1999.90
2022-09-02T00:58:24.650Z,1999.90
2022-09-02T00:59:24.617Z,1999.90
2022-09-02T01:00:24.615Z,1999.90
2022-09-02T01:01:24.726Z,1999.90
2022-09-02T01:02:24.690Z,1999.90
2022-09-02T01:03:24.621Z,1999.90
2022-09-02T01:04:24.577Z,1999.90
2022-09-02T01:05:24.573Z,1999.90
2022-09-02T01:06:24.560Z,1999.90
2022-09-02T01:07:24.554Z,1999.90
2022-09-02T01:08:24.532Z,1999.90
2022-09-02T01:09:25.587Z,1999.90
2022-09-02T01:10:24.535Z,1999.90
2022-09-02T01:11:24.540Z,1999.90
2022-09-02T01:12:24.537Z,1999.90
2022-09-02T01:13:24.516Z,1999.90
2022-09-02T01:14:24.535Z,1999.90
2022-09-02T01:15:24.529Z,1999.90
2022-09-02T01:16:24.564Z,1999.90
2022-09-02T01:17:24.521Z,1999.90
2022-09-02T01:18:24.491Z,1999.90
2022-09-02T01:19:24.498Z,1999.90
2022-09-02T01:20:25.441Z,1999.90
2022-09-02T01:21:24.477Z,1999.90
2022-09-02T01:22:24.474Z,1999.90
2022-09-02T01:23:24.492Z,1999.90
2022-09-02T01:24:24.482Z,1999.90
2022-09-02T01:25:24.475Z,1999.90
2022-09-02T01:26:24.479Z,1999.90
2022-09-02T01:27:24.449Z,1999.90
2022-09-02T01:28:24.425Z,1999.90
2022-09-02T01:29:24.440Z,1999.90
2022-09-02T01:30:24.445Z,1999.90
2022-09-02T01:31:24.456Z,1999.90
2022-09-02T01:32:24.403Z,1999.90
2022-09-02T01:33:25.224Z,1999.90
2022-09-02T01:34:24.408Z,1999.90
2022-09-02T01:35:24.415Z,1999.90
2022-09-02T01:36:24.381Z,1999.90
2022-09-02T01:37:24.380Z,1999.90
2022-09-02T01:38:24.381Z,1999.90
2022-09-02T01:39:24.368Z,1999.90
2022-09-02T01:40:24.603Z,1999.90
2022-09-02T01:41:24.367Z,1999.90
2022-09-02T01:42:24.355Z,1999.90
2022-09-02T01:43:24.348Z,1999.90
2022-09-02T01:44:24.325Z,1999.90
2022-09-02T01:45:24.353Z,1999.90
2022-09-02T01:46:24.352Z,1999.90
2022-09-02T01:47:24.324Z,1999.90
2022-09-02T01:48:24.321Z,1999.90
2022-09-02T01:49:24.295Z,1999.90
2022-09-02T01:50:24.311Z,1821.60
2022-09-02T01:51:24.306Z,1999.90
2022-09-02T01:52:24.270Z,1960.30
2022-09-02T01:53:24.289Z,1618.60
2022-09-02T01:54:24.256Z,1808.00
2022-09-02T01:55:24.259Z,1779.70
2022-09-02T01:56:24.292Z,1687.00
2022-09-02T01:57:24.255Z,1999.90
2022-09-02T01:58:24.239Z,1999.90
2022-09-02T01:59:24.225Z,1999.90
2022-09-02T02:00:24.231Z,1999.90
2022-09-02T02:01:24.286Z,1563.20
2022-09-02T02:02:24.360Z,1709.90
2022-09-02T02:03:24.226Z,1928.50
2022-09-02T02:04:24.216Z,1999.90
2022-09-02T02:05:24.210Z,1999.90
2022-09-02T02:06:24.209Z,1999.90
2022-09-02T02:07:24.211Z,1355.90
2022-09-02T02:08:24.181Z,1392.80
2022-09-02T02:09:24.192Z,1474.10
2022-09-02T02:10:24.164Z,1151.00
2022-09-02T02:11:24.171Z,1046.30
2022-09-02T02:12:24.146Z,1148.70
2022-09-02T02:13:24.177Z,1099.70
2022-09-02T02:14:24.154Z,990.30
2022-09-02T02:16:09.544Z,1010.00
2022-09-02T02:17:09.432Z,852.40
2022-09-02T02:18:09.425Z,1000.10
2022-09-02T02:19:10.546Z,987.60
2022-09-02T02:20:10.551Z,661.60
2022-09-02T02:21:10.522Z,730.70
2022-09-02T02:22:10.536Z,723.30
2022-09-02T02:23:10.552Z,740.00
2022-09-02T02:24:10.549Z,515.90
2022-09-02T02:25:10.497Z,380.00
2022-09-02T02:26:10.515Z,404.00
2022-09-02T02:27:10.499Z,310.40
2022-09-02T02:28:10.480Z,376.40
2022-09-02T02:29:10.476Z,357.40
2022-09-02T02:30:10.504Z,243.60
2022-09-02T02:31:10.547Z,369.60
2022-09-02T02:32:10.465Z,482.30
2022-09-02T02:33:10.468Z,522.60
2022-09-02T02:34:10.456Z,507.20
2022-09-02T02:35:10.477Z,571.80
2022-09-02T02:36:10.449Z,686.10
2022-09-02T02:37:10.432Z,560.80
2022-09-02T02:38:10.418Z,429.80
2022-09-02T02:39:10.424Z,363.80
2022-09-02T02:40:10.426Z,443.20
2022-09-02T02:41:10.533Z,322.30
2022-09-02T02:42:10.397Z,474.70
2022-09-02T02:43:10.398Z,555.30
2022-09-02T02:44:10.394Z,551.30
2022-09-02T02:45:15.153Z,495.70
2022-09-02T02:46:11.506Z,477.50
2022-09-02T02:47:10.374Z,431.00
2022-09-02T02:48:10.364Z,516.50
2022-09-02T02:49:10.362Z,519.60
2022-09-02T02:50:10.351Z,464.40
2022-09-02T02:51:10.350Z,432.90
2022-09-02T02:52:10.435Z,330.30
2022-09-02T02:53:10.330Z,353.40
2022-09-02T02:54:10.304Z,369.00
2022-09-02T02:55:10.320Z,207.30
2022-09-02T02:56:10.306Z,213.80
2022-09-02T02:57:10.312Z,311.20
2022-09-02T02:58:10.291Z,332.50
2022-09-02T02:59:11.291Z,324.40
2022-09-02T03:00:10.275Z,322.40
2022-09-02T03:01:10.302Z,353.90
2022-09-02T03:02:10.529Z,376.20
2022-09-02T03:03:10.385Z,357.80
2022-09-02T03:04:10.227Z,398.30
2022-09-02T03:05:10.282Z,328.40
2022-09-02T03:06:10.231Z,336.20
2022-09-02T03:07:10.231Z,320.30
2022-09-02T03:08:10.263Z,265.80
2022-09-02T03:09:10.228Z,223.60
2022-09-02T03:10:10.214Z,222.70
2022-09-02T03:11:10.210Z,229.70
2022-09-02T03:12:10.201Z,267.20
2022-09-02T03:13:10.210Z,296.40
2022-09-02T03:14:10.215Z,305.90
2022-09-02T03:15:10.197Z,277.00
2022-09-02T03:16:10.199Z,281.10
2022-09-02T03:17:10.167Z,258.80
2022-09-02T03:18:10.171Z,215.00
2022-09-02T03:19:10.188Z,232.50
2022-09-02T03:20:10.154Z,258.70
2022-09-02T03:21:10.163Z,257.40
2022-09-02T03:22:10.136Z,255.40
2022-09-02T03:23:10.167Z,291.30
2022-09-02T03:24:10.143Z,323.30
2022-09-02T03:25:10.241Z,288.70
2022-09-02T03:26:10.117Z,257.20
2022-09-02T03:27:10.158Z,274.30
2022-09-02T03:28:10.099Z,239.70
2022-09-02T03:29:10.086Z,204.00
2022-09-02T03:30:10.198Z,164.60
2022-09-02T03:31:11.091Z,87.20
2022-09-02T03:32:10.117Z,115.20
2022-09-02T03:33:10.065Z,143.50
2022-09-02T03:34:10.075Z,173.40
2022-09-02T03:35:10.065Z,223.80
2022-09-02T03:36:10.070Z,191.90
2022-09-02T03:37:10.039Z,234.00
2022-09-02T03:38:10.043Z,192.00
2022-09-02T03:39:10.266Z,193.20
2022-09-02T03:40:10.047Z,229.00
2022-09-02T03:41:10.052Z,202.50
2022-09-02T03:42:17.484Z,234.00
2022-09-02T03:43:10.010Z,209.90
2022-09-02T03:44:10.006Z,251.30
2022-09-02T03:45:09.994Z,227.90
2022-09-02T03:46:10.030Z,291.80
2022-09-02T03:47:10.014Z,273.00
2022-09-02T03:48:09.966Z,272.30
2022-09-02T03:49:09.978Z,289.00
2022-09-02T03:50:11.060Z,303.50
2022-09-02T03:51:09.954Z,285.80
2022-09-02T03:52:09.998Z,236.40
2022-09-02T03:53:09.946Z,239.60
2022-09-02T03:54:10.943Z,207.60
2022-09-02T03:55:09.932Z,221.10
2022-09-02T03:56:09.934Z,206.40
2022-09-02T03:57:09.929Z,237.80
2022-09-02T03:58:10.024Z,196.10
2022-09-02T03:59:09.919Z,120.00
2022-09-02T04:00:09.893Z,138.70
2022-09-02T04:01:10.995Z,143.00
2022-09-02T04:02:10.034Z,154.70
2022-09-02T04:03:09.949Z,105.40
2022-09-02T04:04:09.886Z,122.30
2022-09-02T04:05:10.347Z,98.80
2022-09-02T04:06:10.863Z,96.00
2022-09-02T04:07:09.873Z,95.40
2022-09-02T04:08:41.926Z,116.90
2022-09-02T04:09:09.859Z,710.70
2022-09-02T04:10:09.836Z,157.80
2022-09-02T04:11:09.829Z,122.40
2022-09-02T04:12:09.834Z,94.60
2022-09-02T04:13:09.834Z,88.20
2022-09-02T04:14:09.838Z,96.80
2022-09-02T04:15:09.816Z,112.00
2022-09-02T04:16:10.707Z,102.10
2022-09-02T04:17:09.797Z,99.70
2022-09-02T04:18:09.805Z,119.20
2022-09-02T04:19:09.906Z,101.60
2022-09-02T04:20:09.798Z,83.80
2022-09-02T04:21:09.784Z,79.00
2022-09-02T04:22:09.772Z,76.30
2022-09-02T04:23:09.761Z,89.10
2022-09-02T04:24:09.767Z,227.00
2022-09-02T04:25:09.788Z,243.70
2022-09-02T04:26:09.759Z,269.70
2022-09-02T04:27:10.579Z,209.70
2022-09-02T04:28:09.747Z,173.30
2022-09-02T04:29:09.729Z,77.50
2022-09-02T04:30:09.732Z,43.30
2022-09-02T04:31:09.797Z,36.70
2022-09-02T04:32:09.726Z,35.80
2022-09-02T04:33:09.702Z,41.00
2022-09-02T04:34:09.708Z,61.20
2022-09-02T04:35:09.701Z,124.20
2022-09-02T04:36:09.719Z,150.60
2022-09-02T04:37:09.684Z,170.50
2022-09-02T04:38:09.676Z,131.60
2022-09-02T04:39:09.676Z,132.00
2022-09-02T04:40:09.713Z,167.30
2022-09-02T04:41:09.668Z,137.50
2022-09-02T04:42:09.650Z,155.30
2022-09-02T04:43:09.632Z,119.50
2022-09-02T04:44:09.640Z,137.70
2022-09-02T04:45:09.634Z,123.60
2022-09-02T04:46:09.663Z,67.80
2022-09-02T04:47:09.717Z,41.70
2022-09-02T04:48:09.618Z,32.60
2022-09-02T04:49:09.652Z,29.30
2022-09-02T04:50:09.594Z,30.90
2022-09-02T04:51:09.591Z,33.60
2022-09-02T04:52:09.603Z,41.40
2022-09-02T04:53:09.583Z,38.20
2022-09-02T04:54:09.576Z,40.50
2022-09-02T04:55:09.559Z,29.90
2022-09-02T04:56:09.568Z,25.70
2022-09-02T04:57:09.569Z,29.50
2022-09-02T04:58:09.589Z,34.60
2022-09-02T04:59:09.552Z,39.60
2022-09-02T05:00:09.546Z,43.00
2022-09-02T05:01:09.587Z,35.50
2022-09-02T05:02:09.573Z,34.50
2022-09-02T05:03:09.542Z,36.50
2022-09-02T05:04:09.588Z,54.40
2022-09-02T05:05:09.511Z,44.50
2022-09-02T05:06:09.498Z,41.70
2022-09-02T05:07:09.485Z,61.90
2022-09-02T05:08:09.502Z,67.60
2022-09-02T05:09:09.520Z,50.50
2022-09-02T05:10:09.497Z,39.10
2022-09-02T05:11:09.472Z,43.50
2022-09-02T05:12:09.475Z,48.90
2022-09-02T05:13:09.461Z,58.30
2022-09-02T05:14:09.490Z,59.40
2022-09-02T05:15:09.459Z,61.80
2022-09-02T05:16:09.506Z,58.00
2022-09-02T05:17:09.455Z,86.00
2022-09-02T05:18:09.434Z,98.70
2022-09-02T05:19:09.433Z,90.50
2022-09-02T05:20:09.450Z,101.20
2022-09-02T05:21:09.412Z,105.00
2022-09-02T05:22:09.405Z,81.40
2022-09-02T05:23:09.413Z,31.50
2022-09-02T05:24:09.414Z,22.50
2022-09-02T05:25:09.421Z,19.50
2022-09-02T05:26:09.380Z,35.00
2022-09-02T05:27:09.370Z,31.40
2022-09-02T05:28:09.363Z,46.30
2022-09-02T05:29:09.365Z,63.20
2022-09-02T05:30:09.364Z,58.80
2022-09-02T05:31:09.425Z,69.60
2022-09-02T05:32:09.340Z,86.20
2022-09-02T05:33:09.331Z,70.80
2022-09-02T05:34:09.319Z,79.20
2022-09-02T05:35:09.300Z,93.20
2022-09-02T05:36:09.329Z,91.20
2022-09-02T05:37:09.311Z,109.10
2022-09-02T05:38:10.043Z,149.50
2022-09-02T05:39:09.317Z,236.60
2022-09-02T05:40:09.331Z,240.80
2022-09-02T05:41:09.286Z,258.50
2022-09-02T05:42:09.312Z,296.70
2022-09-02T05:43:09.276Z,293.10
2022-09-02T05:44:09.269Z,316.60
2022-09-02T05:45:09.289Z,384.90
2022-09-02T05:46:09.309Z,316.80
2022-09-02T05:47:09.636Z,234.10
2022-09-02T05:48:09.243Z,312.40
2022-09-02T05:49:09.318Z,404.70
2022-09-02T05:50:09.240Z,430.60
2022-09-02T05:51:09.236Z,513.70
2022-09-02T05:52:09.209Z,501.80
2022-09-02T05:53:14.212Z,457.70
2022-09-02T05:54:11.211Z,508.50
2022-09-02T05:55:09.198Z,491.60
2022-09-02T05:56:09.199Z,458.00
2022-09-02T05:57:09.210Z,595.10
2022-09-02T05:58:09.206Z,536.40
2022-09-02T05:59:09.177Z,516.10
2022-09-02T06:00:09.267Z,527.50
2022-09-02T06:01:10.120Z,663.60
2022-09-02T06:02:09.195Z,690.30
2022-09-02T06:03:09.202Z,576.80
2022-09-02T06:04:09.271Z,301.40
2022-09-02T06:05:09.153Z,519.10
2022-09-02T06:06:09.144Z,366.90
2022-09-02T06:07:09.133Z,196.00
2022-09-02T06:08:09.159Z,112.10
2022-09-02T06:09:09.150Z,237.40
2022-09-02T06:10:09.116Z,427.20
2022-09-02T06:11:09.113Z,505.60
2022-09-02T06:12:09.167Z,523.60
2022-09-02T06:13:09.077Z,642.20
2022-09-02T06:14:09.105Z,664.80
2022-09-02T06:15:09.070Z,715.80
2022-09-02T06:16:09.221Z,674.70
2022-09-02T06:17:09.107Z,859.80
2022-09-02T06:18:09.052Z,871.70
2022-09-02T06:19:09.065Z,1000.40
2022-09-02T06:20:09.043Z,1061.90
2022-09-02T06:21:09.032Z,1149.40
2022-09-02T06:22:09.047Z,1158.00
2022-09-02T06:23:09.022Z,1119.60
2022-09-02T06:24:09.032Z,1200.80
2022-09-02T06:25:09.003Z,1225.20
2022-09-02T06:26:09.037Z,1269.90
2022-09-02T06:27:08.994Z,1598.70
2022-09-02T06:28:08.998Z,1932.70
2022-09-02T06:29:08.978Z,1745.90
2022-09-02T06:30:09.013Z,1603.00
2022-09-02T06:31:09.032Z,1999.90
2022-09-02T06:32:08.983Z,1999.90
2022-09-02T06:33:08.978Z,1999.90
2022-09-02T06:34:08.949Z,1999.90
2022-09-02T06:35:08.987Z,1999.90
2022-09-02T06:36:08.942Z,1999.90
2022-09-02T06:37:08.947Z,1999.90
2022-09-02T06:38:08.930Z,1999.90
2022-09-02T06:39:08.913Z,1999.90
2022-09-02T06:40:08.954Z,1999.90
2022-09-02T06:41:09.023Z,1999.90
2022-09-02T06:42:08.889Z,1999.90
2022-09-02T06:43:08.896Z,1999.90
2022-09-02T06:44:08.908Z,1999.90
2022-09-02T06:45:08.883Z,1999.90
2022-09-02T06:46:09.117Z,1999.90
2022-09-02T06:47:08.885Z,1999.90
2022-09-02T06:48:08.870Z,1999.90
2022-09-02T06:49:08.902Z,1999.90
2022-09-02T06:50:08.860Z,1999.90
2022-09-02T06:51:08.857Z,1999.90
2022-09-02T06:52:08.944Z,1999.90
2022-09-02T06:53:08.835Z,1999.90
2022-09-02T06:54:08.849Z,1999.90
2022-09-02T06:55:08.816Z,1999.90
2022-09-02T06:56:08.819Z,1999.90
2022-09-02T06:57:08.931Z,1999.90
2022-09-02T06:58:08.809Z,1999.90
2022-09-02T06:59:08.804Z,1999.90
2022-09-02T07:00:08.807Z,1999.90
2022-09-02T07:01:08.859Z,1999.90
2022-09-02T07:02:09.037Z,1999.90
2022-09-02T07:03:08.803Z,1999.90
2022-09-02T07:04:08.781Z,1999.90
2022-09-02T07:05:08.769Z,1999.90
2022-09-02T07:06:08.780Z,1999.90
2022-09-02T07:07:09.753Z,1999.90
2022-09-02T07:08:08.861Z,1999.90
2022-09-02T07:09:08.767Z,1999.90
2022-09-02T07:10:08.738Z,1999.90
2022-09-02T07:11:08.735Z,1999.90
2022-09-02T07:12:08.739Z,1999.90
2022-09-02T07:13:08.726Z,1999.90
2022-09-02T07:14:08.834Z,1999.90
2022-09-02T07:15:08.701Z,1999.90
2022-09-02T07:16:09.753Z,1999.90
2022-09-02T07:17:08.743Z,1999.90
2022-09-02T07:18:08.694Z,1999.90
2022-09-02T07:19:14.046Z,1999.90
2022-09-02T07:20:09.681Z,1999.90
2022-09-02T07:21:08.675Z,1999.90
2022-09-02T07:22:08.682Z,1999.90
2022-09-02T07:23:08.657Z,1999.90
2022-09-02T07:24:08.661Z,1999.90
2022-09-02T07:25:08.675Z,1999.90
2022-09-02T07:26:08.638Z,1999.90
2022-09-02T07:27:08.642Z,1999.90
2022-09-02T07:28:08.633Z,1999.90
2022-09-02T07:29:08.623Z,1999.90
2022-09-02T07:30:08.662Z,1999.90
2022-09-02T07:31:08.650Z,1999.90
2022-09-02T07:32:08.600Z,1999.90
2022-09-02T07:33:08.611Z,1999.90
2022-09-02T07:34:08.593Z,1999.90
2022-09-02T07:35:08.574Z,1999.90
2022-09-02T07:36:12.202Z,1999.90
2022-09-02T07:37:10.832Z,1999.90
2022-09-02T07:38:09.565Z,1999.90
2022-09-02T07:39:08.553Z,1999.90
2022-09-02T07:40:08.616Z,1999.90
2022-09-02T07:41:08.568Z,1999.90
2022-09-02T07:42:08.535Z,1999.90
2022-09-02T07:43:08.526Z,1999.90
2022-09-02T07:44:08.538Z,1999.90
2022-09-02T07:45:08.513Z,1999.90
2022-09-02T07:46:08.559Z,1999.90
2022-09-02T07:47:08.531Z,1999.90
2022-09-02T07:48:08.501Z,1999.90
2022-09-02T07:49:09.341Z,1999.90
2022-09-02T07:50:19.102Z,1999.90
2022-09-02T07:51:10.486Z,1999.90
2022-09-02T07:52:08.506Z,1999.90
2022-09-02T07:53:08.465Z,1999.90
2022-09-02T07:54:08.466Z,1999.90
2022-09-02T07:55:12.609Z,1999.90
2022-09-02T07:56:09.472Z,1999.90
2022-09-02T07:57:08.476Z,1999.90
2022-09-02T07:58:08.516Z,1999.90
2022-09-02T07:59:08.442Z,1999.90
2022-09-02T08:00:08.422Z,1999.90
2022-09-02T08:01:08.633Z,1999.90
2022-09-02T08:02:08.472Z,1999.90
2022-09-02T08:04:08.407Z,1999.90
2022-09-02T08:05:08.395Z,1999.90
2022-09-02T08:06:08.390Z,1999.90
2022-09-02T08:07:08.382Z,1999.90
2022-09-02T08:08:08.393Z,1999.90
2022-09-02T08:09:08.511Z,1999.90
2022-09-02T08:10:08.357Z,1999.90
2022-09-02T08:11:08.364Z,1999.90
2022-09-02T08:12:08.375Z,1999.90
2022-09-02T08:13:08.347Z,1999.90
2022-09-02T08:14:08.451Z,1999.90
2022-09-02T08:15:08.334Z,1999.90
2022-09-02T08:16:08.422Z,1999.90
2022-09-02T08:17:08.386Z,1999.90
2022-09-02T08:18:08.559Z,1999.90
2022-09-02T08:19:08.321Z,1999.90
2022-09-02T08:20:12.270Z,1999.90
2022-09-02T08:21:09.308Z,1999.90
2022-09-02T08:22:08.291Z,1999.90
2022-09-02T08:23:12.479Z,1999.90
2022-09-02T08:24:09.282Z,1999.90
2022-09-02T08:25:08.409Z,1999.90
2022-09-02T08:26:08.286Z,1999.90
2022-09-02T08:27:08.279Z,1999.90
2022-09-02T08:28:08.263Z,1999.90
2022-09-02T08:29:08.241Z,1999.90
2022-09-02T08:30:08.251Z,1999.90
2022-09-02T08:31:08.278Z,1999.90
2022-09-02T08:32:09.270Z,1999.90
2022-09-02T08:33:08.229Z,1999.90
2022-09-02T08:34:08.218Z,1999.90
2022-09-02T08:35:08.220Z,1999.90
2022-09-02T08:36:08.232Z,1999.90
2022-09-02T08:37:08.203Z,1999.90
2022-09-02T08:38:08.179Z,1999.90
2022-09-02T08:39:08.193Z,1999.90
2022-09-02T08:40:08.229Z,1999.90
2022-09-02T08:41:08.196Z,1999.90
2022-09-02T08:42:08.289Z,1999.90
2022-09-02T08:43:08.161Z,1999.90
2022-09-02T08:44:08.168Z,1999.90
2022-09-02T08:45:08.140Z,1999.90
2022-09-02T08:46:08.235Z,1999.90
2022-09-02T08:47:08.151Z,1999.90
2022-09-02T08:48:08.136Z,1999.90
2022-09-02T08:49:08.132Z,1999.90
2022-09-02T08:50:08.133Z,1999.90
2022-09-02T08:51:08.117Z,1999.90
2022-09-02T08:52:08.128Z,1999.90
2022-09-02T08:53:08.231Z,1999.90
2022-09-02T08:54:08.088Z,1999.90
2022-09-02T08:55:08.094Z,1999.90
2022-09-02T08:56:08.092Z,1999.90
2022-09-02T08:57:08.098Z,1999.90
2022-09-02T08:58:08.122Z,1999.90
2022-09-02T08:59:08.083Z,1999.90
2022-09-02T09:00:08.073Z,1999.90
2022-09-02T09:01:08.111Z,1999.90
2022-09-02T09:02:08.077Z,1999.90
2022-09-02T09:03:08.062Z,1999.90
2022-09-02T09:04:08.084Z,1999.90
2022-09-02T09:05:08.037Z,1999.90
2022-09-02T09:06:08.024Z,1999.90
2022-09-02T09:07:08.047Z,1999.90
2022-09-02T09:08:10.870Z,1999.90
2022-09-02T09:09:09.053Z,1999.90
2022-09-02T09:10:08.014Z,1999.90
2022-09-02T09:11:08.012Z,1999.90
2022-09-02T09:12:08.081Z,1999.90
2022-09-02T09:13:08.034Z,1999.90
2022-09-02T09:14:08.088Z,1999.90
2022-09-02T09:15:08.221Z,1999.90
2022-09-02T09:16:08.143Z,1999.90
2022-09-02T09:17:08.053Z,1999.90
2022-09-02T09:18:07.973Z,1999.90
2022-09-02T09:19:08.862Z,1999.90
2022-09-02T09:20:08.979Z,1999.90
2022-09-02T09:21:07.982Z,1999.90
2022-09-02T09:22:07.949Z,1999.90
2022-09-02T09:23:07.950Z,1999.90
2022-09-02T09:24:07.938Z,1999.90
2022-09-02T09:25:07.941Z,1999.90
2022-09-02T09:26:07.935Z,1999.90
2022-09-02T09:27:07.932Z,1999.90
2022-09-02T09:28:07.914Z,1999.90
2022-09-02T09:29:07.907Z,1999.90
2022-09-02T09:30:10.456Z,1999.90
2022-09-02T09:31:07.905Z,1999.90
2022-09-02T09:32:07.882Z,1999.90
2022-09-02T09:33:07.901Z,1999.90
2022-09-02T09:34:07.892Z,1999.90
2022-09-02T09:35:07.926Z,1999.90
2022-09-02T09:36:07.893Z,1999.90
2022-09-02T09:37:07.865Z,1999.90
2022-09-02T09:38:07.875Z,1999.90
2022-09-02T09:39:07.860Z,1999.90
2022-09-02T09:40:07.918Z,1999.90
2022-09-02T09:41:07.852Z,1999.90
2022-09-02T09:42:07.836Z,1999.90
2022-09-02T09:43:14.771Z,1999.90
2022-09-02T09:44:07.816Z,1999.90
2022-09-02T09:45:07.838Z,1999.90
2022-09-02T09:46:07.906Z,1999.90
2022-09-02T09:47:07.824Z,1999.90
2022-09-02T09:48:07.803Z,1999.90
2022-09-02T09:49:07.822Z,1999.90
2022-09-02T09:50:07.814Z,1999.90
2022-09-02T09:51:07.803Z,1999.90
2022-09-02T09:52:07.786Z,1999.90
2022-09-02T09:53:07.784Z,1999.90
2022-09-02T09:54:07.781Z,1999.90
2022-09-02T09:55:07.779Z,1999.90
2022-09-02T09:56:07.773Z,1999.90
2022-09-02T09:57:07.763Z,1999.90
2022-09-02T09:58:07.753Z,1999.90
2022-09-02T09:59:07.739Z,1999.90
2022-09-02T10:00:08.312Z,1999.90
2022-09-02T10:01:07.823Z,1999.90
2022-09-02T10:02:07.819Z,1999.90
2022-09-02T10:03:07.747Z,1999.90
2022-09-02T10:04:20.756Z,1999.90
2022-09-02T10:05:08.729Z,1999.90
2022-09-02T10:06:07.737Z,1999.90
2022-09-02T10:07:07.710Z,1999.90
2022-09-02T10:08:15.025Z,1999.90
2022-09-02T10:09:35.715Z,1999.90
2022-09-02T10:10:07.692Z,1999.90
2022-09-02T10:11:07.833Z,1999.90
2022-09-02T10:12:07.706Z,1999.90
2022-09-02T10:13:07.705Z,1999.90
2022-09-02T10:14:07.710Z,1999.90
2022-09-02T10:15:07.678Z,1999.90
2022-09-02T10:16:07.893Z,1999.90
2022-09-02T10:17:07.696Z,1999.90
2022-09-02T10:18:07.649Z,1999.90
2022-09-02T10:19:07.633Z,1999.90
2022-09-02T10:20:07.632Z,1999.90
2022-09-02T10:21:15.077Z,1999.90
2022-09-02T10:22:09.661Z,1999.90
2022-09-02T10:23:07.620Z,1999.90
2022-09-02T10:24:07.642Z,1999.90
2022-09-02T10:25:07.607Z,1999.90
2022-09-02T10:26:07.603Z,1999.90
2022-09-02T10:27:07.594Z,1999.90
2022-09-02T10:28:07.598Z,1999.90
2022-09-02T10:29:07.589Z,1999.90
2022-09-02T10:30:07.589Z,1999.90
2022-09-02T10:31:07.649Z,1999.90
2022-09-02T10:32:07.567Z,1999.90
2022-09-02T10:33:07.578Z,1999.90
2022-09-02T10:34:07.557Z,1999.90
2022-09-02T10:35:07.524Z,1999.90
2022-09-02T10:36:07.533Z,1999.90
2022-09-02T10:37:07.557Z,1999.90
2022-09-02T10:38:07.525Z,1999.90
2022-09-02T10:39:07.510Z,1999.90
2022-09-02T10:40:07.610Z,1999.90
2022-09-02T10:41:07.517Z,1999.90
2022-09-02T10:42:08.756Z,1999.90
2022-09-02T10:43:07.478Z,1999.90
2022-09-02T10:44:07.492Z,1999.90
2022-09-02T10:45:07.478Z,1999.90
2022-09-02T10:46:07.495Z,1999.90
2022-09-02T10:47:07.483Z,1999.90
2022-09-02T10:48:07.673Z,1999.90
2022-09-02T10:49:07.475Z,1999.90
2022-09-02T10:50:07.447Z,1999.90
2022-09-02T10:51:07.471Z,1999.90
2022-09-02T10:52:07.509Z,1999.90
2022-09-02T10:53:09.556Z,1999.90
2022-09-02T10:54:07.432Z,1999.90
2022-09-02T10:55:07.441Z,1999.90
2022-09-02T10:56:07.410Z,1999.90
2022-09-02T10:57:07.429Z,1999.90
2022-09-02T10:58:07.396Z,1999.90
2022-09-02T10:59:07.444Z,1999.90
2022-09-02T11:00:07.387Z,1999.90
2022-09-02T11:01:07.440Z,1999.90
2022-09-02T11:02:07.384Z,1999.90
2022-09-02T11:03:07.394Z,1999.90
2022-09-02T11:04:07.396Z,1999.90
2022-09-02T11:05:07.357Z,1999.90
2022-09-02T11:06:07.361Z,1999.90
2022-09-02T11:07:07.347Z,1999.90
2022-09-02T11:08:07.376Z,1999.90
2022-09-02T11:09:07.340Z,1999.90
2022-09-02T11:10:07.357Z,1999.90
2022-09-02T11:11:07.333Z,1999.90
2022-09-02T11:12:07.329Z,1999.90
2022-09-02T11:13:07.408Z,1999.90
2022-09-02T11:14:07.319Z,1999.90
2022-09-02T11:15:07.345Z,1999.90
2022-09-02T11:16:07.367Z,1999.90
2022-09-02T11:17:13.402Z,1999.90
2022-09-02T11:18:08.289Z,1999.90
2022-09-02T11:19:07.373Z,1999.90
2022-09-02T11:20:07.305Z,1999.90
2022-09-02T11:21:07.380Z,1999.90
2022-09-02T11:22:07.283Z,1999.90
2022-09-02T11:23:07.256Z,1999.90
2022-09-02T11:24:07.267Z,1999.90
2022-09-02T11:25:07.247Z,1999.90
2022-09-02T11:26:07.295Z,1999.90
2022-09-02T11:27:15.741Z,1999.90
2022-09-02T11:28:08.235Z,1999.90
2022-09-02T11:29:07.222Z,1999.90
2022-09-02T11:30:07.232Z,1999.90
2022-09-02T11:31:07.203Z,1999.90
2022-09-02T11:32:07.311Z,1999.90
2022-09-02T11:33:07.199Z,1999.90
2022-09-02T11:34:07.187Z,1999.90
2022-09-02T11:35:07.187Z,1999.90
2022-09-02T11:36:07.176Z,1999.90
2022-09-02T11:37:07.188Z,1999.90
2022-09-02T11:38:07.188Z,1999.90
2022-09-02T11:39:07.146Z,1999.90
2022-09-02T11:40:30.279Z,1999.90
2022-09-02T11:42:09.201Z,1999.90
2022-09-02T11:43:07.175Z,1999.90
2022-09-02T11:44:07.112Z,1999.90
2022-09-02T11:45:07.155Z,1999.90
2022-09-02T11:46:07.185Z,1999.90
2022-09-02T11:47:07.115Z,1999.90
2022-09-02T11:48:07.216Z,1999.90
2022-09-02T11:49:08.516Z,1999.90
2022-09-02T11:50:07.088Z,1999.90
2022-09-02T11:51:07.071Z,1999.90
2022-09-02T11:52:07.077Z,1999.90
2022-09-02T11:53:07.102Z,1999.90
2022-09-02T11:54:07.099Z,1999.90
2022-09-02T11:55:07.071Z,1999.90
2022-09-02T11:56:07.064Z,1999.90
2022-09-02T11:57:07.058Z,1999.90
2022-09-02T11:58:07.029Z,1999.90
2022-09-02T11:59:07.160Z,1999.90
2022-09-02T12:00:07.019Z,1999.90
2022-09-02T12:01:07.043Z,1999.90
2022-09-02T12:02:08.157Z,1999.90
2022-09-02T12:03:28.354Z,1999.90
2022-09-02T12:04:56.125Z,1999.90
2022-09-02T12:05:09.484Z,1999.90
2022-09-02T12:06:07.092Z,1999.90
2022-09-02T12:07:09.559Z,1999.90
2022-09-02T12:08:08.062Z,1999.90
2022-09-02T12:09:07.156Z,1999.90
2022-09-02T12:10:07.027Z,1999.90
2022-09-02T12:11:06.963Z,1999.90
2022-09-02T12:12:06.965Z,1999.90
2022-09-02T12:13:08.365Z,1999.90
2022-09-02T12:14:08.216Z,1999.90
2022-09-02T12:15:07.080Z,1999.90
2022-09-02T12:16:07.124Z,1999.90
2022-09-02T12:17:06.989Z,1999.90
2022-09-02T12:18:07.071Z,1999.90